« 定点 富山空港 2014/2/9 sun | トップページ | 定点 富山空港 2014/2/12 wed »

2014/02/10

定点 富山空港 2014/2/10 mon

昨日から降雪は無し。昼間気温は上がらないが、陽がさすと雪解けが進む。冬ではあるが、もう河原の木々がうっとおしくなってきている。

RJNT 100200Z VRB02KT 9999 SCT030 BKN/// 03/M02 Q1021

20140210_rjnt_00b18609

20140210_rjnt_01b18609

20140210_rjnt_02b18609

CAL170 RCTP-RJNT B-18609 B737-809

20140210_rjnt_03b18609

これで葉っぱが出たら、ブラインドだらけになる。

20140210_rjnt_04ja809a

20140210_rjnt_05ja809a

20140210_rjnt_06ja809a

ANA886 RJNT-RJTT JA809A B787-881

RJNT 100400Z 27009KT 9999 FEW025 SCT040 BKN/// 03/M03 Q1021

20140210_rjnt_07b18609

20140210_rjnt_08b18609

20140210_rjnt_09b18609

CAL171 RJNT-RCTP B-18609 B737-809

20140210_rjnt_10ja01an

20140210_rjnt_11ja01an

ADO120 RJCC-RJNT JA01AN B737-781

20140210_rjnt_12ja810a

20140210_rjnt_13ja810a

ANA885 RJTT-RJNT JA810A B787-881

20140210_rjnt_14ja01an

20140210_rjnt_15ja01an_2

ADO121 RJNT-RJCC JA01AN B737-781

RJNT 100600Z 31009KT 9999 FEW025 SCT035 BKN/// 02/M04 Q1021

20140210_rjnt_16ja810a

20140210_rjnt_17ja810a

20140210_rjnt_18ja810a

ANA888 RJTT-RJNT JA810A B787-881

20140210_rjnt_19ja818a

20140210_rjnt_20ja818a

20140210_rjnt_21ja818a

20140210_rjnt_22ja818a

ANA887 RJTT-RJNT JA818A B787-881

RJNT 100800Z 27007KT 240V310 9999 VCSH FEW025 SCT035 BKN050 01/M05 Q1022

ANA     /882 JA8677
ANA881/884 JA8567
ANA883/886 JA809A
ANA885/888 JA810A
ANA887/890 JA818A
ANA889/892 JA8342
ANA891       JA8291

ADO120/121 JA01AN

CAL170/171 B-18609

|

« 定点 富山空港 2014/2/9 sun | トップページ | 定点 富山空港 2014/2/12 wed »

富山空港」カテゴリの記事

コメント

コメントを書く



(ウェブ上には掲載しません)


コメントは記事投稿者が公開するまで表示されません。



トラックバック


この記事へのトラックバック一覧です: 定点 富山空港 2014/2/10 mon:

« 定点 富山空港 2014/2/9 sun | トップページ | 定点 富山空港 2014/2/12 wed »